Time;durP1;ratioP1;P1;durP2;ratioP2;P2;SDS_P1;SDS_P2;PMS_P1;PMS_P2;Temp;Humidity;BMP_temperature;BMP_pressure;BME280_temperature;BME280_humidity;BME280_pressure;Samples;Min_cycle;Max_cycle;Signal;HPM_P1;HPM_P2
2023/06/26 00:00:06;;;;;;;4.10;3.50;;;28.50;47.60;;;;;;5044225;28;20414;-62
2023/06/26 00:02:32;;;;;;;3.75;3.00;;;28.50;48.20;;;;;;5043142;28;20029;-66
2023/06/26 00:05:02;;;;;;;4.22;3.53;;;28.50;47.60;;;;;;5026622;28;20125;-65
2023/06/26 00:07:29;;;;;;;4.10;3.45;;;28.40;47.60;;;;;;5040417;28;20024;-64
2023/06/26 00:09:56;;;;;;;3.80;3.38;;;28.50;47.70;;;;;;5027415;28;20048;-66
2023/06/26 00:12:22;;;;;;;3.40;3.10;;;28.40;47.60;;;;;;5026768;28;20348;-65
2023/06/26 00:14:48;;;;;;;4.32;3.45;;;28.40;47.60;;;;;;5022588;28;20084;-66
2023/06/26 00:17:14;;;;;;;3.90;3.20;;;28.40;47.60;;;;;;5043027;28;20070;-64
2023/06/26 00:19:40;;;;;;;3.70;3.20;;;28.40;47.70;;;;;;5048352;28;20144;-64
2023/06/26 00:22:06;;;;;;;3.65;3.35;;;28.40;47.70;;;;;;5048490;28;20051;-65
2023/06/26 00:24:31;;;;;;;4.05;3.50;;;28.40;47.70;;;;;;5045944;28;20393;-64
2023/06/26 00:26:58;;;;;;;3.60;3.17;;;28.40;47.80;;;;;;5048274;28;20037;-66
2023/06/26 00:29:24;;;;;;;3.28;2.78;;;28.40;48.50;;;;;;5026629;28;20041;-65
2023/06/26 00:31:50;;;;;;;3.83;3.53;;;28.40;47.90;;;;;;5048050;28;20047;-65
2023/06/26 00:34:16;;;;;;;3.30;3.00;;;28.40;47.90;;;;;;5029286;28;20082;-65
2023/06/26 00:36:45;;;;;;;3.47;3.10;;;28.40;48.00;;;;;;5028340;28;20112;-66
2023/06/26 00:39:11;;;;;;;4.05;3.35;;;28.40;48.00;;;;;;5026320;28;20061;-65
2023/06/26 00:41:39;;;;;;;3.47;3.17;;;28.40;48.00;;;;;;5047843;28;20025;-67
2023/06/26 00:44:05;;;;;;;3.63;3.33;;;28.40;48.00;;;;;;5025324;28;20132;-64
2023/06/26 00:46:32;;;;;;;4.47;3.15;;;28.40;48.00;;;;;;5025321;28;20053;-67
2023/06/26 00:49:03;;;;;;;3.88;3.40;;;28.40;48.10;;;;;;5028267;28;20333;-67
2023/06/26 00:51:30;;;;;;;3.97;3.03;;;28.30;48.10;;;;;;5024564;28;20025;-66
2023/06/26 00:53:56;;;;;;;3.17;2.88;;;28.40;48.10;;;;;;5027022;28;20026;-65
2023/06/26 00:56:22;;;;;;;3.83;3.35;;;28.40;48.10;;;;;;5027983;28;20033;-66
2023/06/26 00:58:48;;;;;;;3.65;3.20;;;28.40;48.20;;;;;;5025599;28;20130;-65
2023/06/26 01:01:21;;;;;;;3.53;3.17;;;28.30;48.10;;;;;;5027502;28;20041;-64
2023/06/26 01:03:52;;;;;;;4.20;3.50;;;28.30;48.20;;;;;;5028063;28;20053;-65
2023/06/26 01:06:21;;;;;;;3.95;3.45;;;28.30;48.20;;;;;;5026300;28;20097;-67
2023/06/26 01:08:48;;;;;;;4.43;3.35;;;28.30;48.30;;;;;;5024348;28;20115;-64
2023/06/26 01:11:15;;;;;;;5.93;3.95;;;28.30;48.30;;;;;;5015532;28;21916;-64
2023/06/26 01:13:43;;;;;;;3.92;3.55;;;28.30;48.30;;;;;;5026057;28;20326;-65
2023/06/26 01:16:10;;;;;;;4.18;3.53;;;28.30;48.30;;;;;;5026787;28;20025;-64
2023/06/26 01:18:41;;;;;;;4.00;3.60;;;28.30;48.30;;;;;;5022110;28;20021;-63
2023/06/26 01:21:09;;;;;;;3.75;3.30;;;28.30;48.40;;;;;;5014246;28;20060;-65
2023/06/26 01:24:05;;;;;;;4.43;3.75;;;28.30;48.30;;;;;;5024433;28;20061;-64
2023/06/26 01:26:36;;;;;;;5.43;3.80;;;28.30;48.30;;;;;;5022777;28;20112;-66
2023/06/26 01:29:06;;;;;;;3.70;3.35;;;28.30;48.40;;;;;;5021623;28;20048;-65
2023/06/26 01:31:33;;;;;;;3.92;3.53;;;28.30;48.40;;;;;;5027195;28;20030;-68
2023/06/26 01:34:02;;;;;;;3.50;3.20;;;28.20;48.30;;;;;;5026725;28;20405;-66
2023/06/26 01:36:27;;;;;;;4.30;3.75;;;28.20;48.30;;;;;;5026341;28;20091;-64
2023/06/26 01:38:54;;;;;;;3.88;3.40;;;28.20;48.30;;;;;;5020308;28;20037;-66
2023/06/26 01:41:20;;;;;;;3.85;3.47;;;28.20;48.30;;;;;;5027213;28;20056;-65
2023/06/26 01:44:03;;;;;;;4.40;3.92;;;28.20;48.30;;;;;;5016813;28;20056;-66
2023/06/26 01:46:53;;;;;;;4.00;3.40;;;28.20;48.30;;;;;;5007774;28;20028;-64
2023/06/26 01:49:52;;;;;;;4.00;3.60;;;28.20;48.30;;;;;;5007938;28;20030;-67
2023/06/26 01:52:26;;;;;;;4.00;3.60;;;28.20;48.30;;;;;;5006138;28;20078;-65
2023/06/26 01:55:05;;;;;;;4.00;3.60;;;28.20;48.30;;;;;;5003698;28;20060;-63
2023/06/26 01:57:31;;;;;;;3.78;3.38;;;28.20;48.30;;;;;;5003644;28;20825;-66
2023/06/26 01:59:59;;;;;;;4.20;3.80;;;28.20;48.30;;;;;;5006233;28;20433;-67
2023/06/26 02:02:29;;;;;;;4.03;3.47;;;28.20;48.30;;;;;;5003802;28;20136;-63
2023/06/26 02:04:55;;;;;;;4.88;3.92;;;28.20;48.30;;;;;;5005370;28;20131;-66
2023/06/26 02:07:21;;;;;;;4.97;4.20;;;28.20;48.30;;;;;;5002077;28;20074;-67
2023/06/26 02:09:47;;;;;;;4.05;3.60;;;28.20;48.40;;;;;;5005399;28;20057;-65
2023/06/26 02:12:13;;;;;;;4.00;3.40;;;28.20;48.40;;;;;;5006236;28;20026;-66
2023/06/26 02:14:39;;;;;;;3.97;3.38;;;28.20;48.40;;;;;;5006316;28;20057;-66
2023/06/26 02:17:05;;;;;;;3.78;3.38;;;28.20;48.40;;;;;;5001940;28;20038;-64
2023/06/26 02:19:31;;;;;;;4.00;3.63;;;28.20;48.40;;;;;;4999187;28;20133;-65
2023/06/26 02:21:58;;;;;;;3.75;3.30;;;28.10;48.40;;;;;;4999447;28;20102;-65
2023/06/26 02:24:24;;;;;;;3.85;3.35;;;28.20;48.40;;;;;;5005658;28;20037;-64
2023/06/26 02:26:50;;;;;;;3.53;3.22;;;28.10;48.40;;;;;;5001832;28;20030;-64
2023/06/26 02:29:16;;;;;;;3.38;3.08;;;28.10;48.20;;;;;;5006496;28;20045;-63
2023/06/26 02:31:42;;;;;;;3.53;3.03;;;28.10;48.20;;;;;;5002228;28;20038;-65
2023/06/26 02:34:08;;;;;;;3.65;3.05;;;28.10;48.10;;;;;;5002239;28;20041;-66
2023/06/26 02:36:33;;;;;;;4.57;3.42;;;28.10;48.10;;;;;;5000548;28;20129;-64
2023/06/26 02:38:59;;;;;;;3.42;3.13;;;28.10;47.90;;;;;;5005761;28;20030;-66
2023/06/26 02:41:26;;;;;;;3.03;2.72;;;28.10;47.90;;;;;;5004976;28;20159;-64
2023/06/26 02:43:52;;;;;;;3.60;3.08;;;28.10;47.80;;;;;;5008060;28;20053;-66
2023/06/26 02:46:18;;;;;;;3.92;3.22;;;28.10;47.70;;;;;;5007171;28;20026;-66
2023/06/26 02:48:44;;;;;;;3.95;2.78;;;28.10;47.60;;;;;;5025716;28;20121;-67
2023/06/26 02:51:10;;;;;;;4.82;2.97;;;28.10;47.50;;;;;;5023707;28;20107;-65
2023/06/26 02:53:36;;;;;;;3.08;2.78;;;28.10;47.40;;;;;;5020910;28;20112;-65
2023/06/26 02:56:03;;;;;;;3.00;2.50;;;28.00;47.40;;;;;;5023302;28;20045;-65
2023/06/26 02:58:29;;;;;;;3.47;2.55;;;28.00;47.30;;;;;;5024485;28;20029;-65
2023/06/26 03:00:56;;;;;;;3.67;2.75;;;28.00;47.30;;;;;;5023353;28;20103;-67
2023/06/26 03:03:22;;;;;;;4.72;2.38;;;28.00;47.30;;;;;;5021716;28;20138;-67
2023/06/26 03:05:48;;;;;;;3.35;2.30;;;28.00;47.30;;;;;;5023024;28;20519;-65
2023/06/26 03:08:14;;;;;;;2.88;2.58;;;28.00;47.30;;;;;;5012730;28;20022;-65
2023/06/26 03:10:40;;;;;;;3.42;2.70;;;28.00;47.40;;;;;;5024016;28;20471;-67
2023/06/26 03:13:06;;;;;;;2.70;2.10;;;28.00;47.40;;;;;;5024388;28;20089;-66
2023/06/26 03:15:32;;;;;;;3.55;2.53;;;28.00;47.40;;;;;;5024012;28;20103;-65
2023/06/26 03:17:58;;;;;;;4.25;2.08;;;28.00;47.40;;;;;;5022854;28;20155;-66
2023/06/26 03:20:27;;;;;;;2.72;2.10;;;27.90;47.40;;;;;;5022675;28;20109;-65
2023/06/26 03:22:54;;;;;;;2.65;2.20;;;27.90;47.40;;;;;;5023011;28;20132;-65
2023/06/26 03:25:22;;;;;;;2.75;2.22;;;27.90;47.40;;;;;;5023407;28;20097;-66
2023/06/26 03:27:49;;;;;;;2.80;2.00;;;27.90;47.50;;;;;;5020526;28;20120;-65
2023/06/26 03:30:17;;;;;;;3.20;2.05;;;27.90;47.50;;;;;;5023884;28;20094;-68
2023/06/26 03:32:45;;;;;;;4.72;2.50;;;27.90;47.50;;;;;;5005286;28;20093;-66
2023/06/26 03:35:11;;;;;;;3.38;2.00;;;27.90;47.50;;;;;;5007288;28;20195;-66
2023/06/26 03:37:37;;;;;;;3.58;2.28;;;27.90;47.50;;;;;;5002029;28;20124;-66
2023/06/26 03:40:05;;;;;;;3.70;2.15;;;27.90;47.60;;;;;;5023662;28;20063;-65
2023/06/26 03:42:31;;;;;;;3.25;1.95;;;27.90;47.60;;;;;;5023810;28;20033;-65
2023/06/26 03:44:57;;;;;;;4.70;2.50;;;27.90;47.60;;;;;;5004817;28;20053;-65
2023/06/26 03:47:22;;;;;;;3.22;2.10;;;27.90;47.70;;;;;;5000730;28;20040;-65
2023/06/26 03:49:48;;;;;;;3.72;2.15;;;27.80;47.60;;;;;;4994789;28;20026;-66
2023/06/26 03:52:14;;;;;;;3.83;2.00;;;27.90;47.70;;;;;;5004874;28;20044;-65
2023/06/26 03:54:41;;;;;;;3.90;2.15;;;27.80;47.70;;;;;;5001194;28;20062;-65
2023/06/26 03:57:09;;;;;;;3.65;2.20;;;27.80;47.70;;;;;;5000459;28;20074;-63
2023/06/26 03:59:36;;;;;;;4.50;2.30;;;27.80;47.70;;;;;;5002451;28;20468;-64
2023/06/26 04:02:03;;;;;;;3.72;1.85;;;27.80;47.80;;;;;;5003673;28;20393;-65
2023/06/26 04:04:29;;;;;;;3.30;2.35;;;27.80;47.80;;;;;;5000996;28;20045;-66
2023/06/26 04:06:55;;;;;;;3.65;1.98;;;27.80;47.90;;;;;;4997365;28;20030;-65
2023/06/26 04:09:21;;;;;;;5.18;2.10;;;27.80;47.90;;;;;;5002844;28;20133;-65
2023/06/26 04:11:47;;;;;;;4.40;2.47;;;27.80;47.90;;;;;;5016738;28;20037;-65
2023/06/26 04:14:13;;;;;;;5.65;2.17;;;27.80;48.00;;;;;;5003490;28;20030;-67
2023/06/26 04:16:39;;;;;;;3.72;1.88;;;27.80;48.00;;;;;;5004341;28;20498;-64
2023/06/26 04:19:05;;;;;;;4.88;2.03;;;27.80;48.10;;;;;;5002969;28;20034;-65
2023/06/26 04:21:31;;;;;;;4.45;2.35;;;27.80;48.10;;;;;;5004298;28;20093;-64
2023/06/26 04:23:57;;;;;;;3.42;2.00;;;27.80;48.10;;;;;;5005080;28;20021;-64
2023/06/26 04:26:22;;;;;;;4.20;2.00;;;27.80;48.20;;;;;;5003029;28;20475;-65
2023/06/26 04:28:48;;;;;;;4.40;2.20;;;27.80;48.30;;;;;;5003724;28;20032;-64
2023/06/26 04:31:14;;;;;;;4.45;2.10;;;27.70;48.30;;;;;;5003530;28;20026;-66
2023/06/26 04:33:40;;;;;;;4.50;2.40;;;27.70;48.30;;;;;;5003885;28;20026;-65
2023/06/26 04:36:06;;;;;;;4.47;1.95;;;27.70;48.40;;;;;;5003025;28;20132;-65
2023/06/26 04:38:33;;;;;;;4.15;2.42;;;27.70;48.40;;;;;;5004308;28;20413;-63
2023/06/26 04:41:02;;;;;;;3.72;1.80;;;27.70;48.50;;;;;;5003073;28;20034;-65
2023/06/26 04:43:28;;;;;;;5.38;2.63;;;27.70;48.50;;;;;;5013611;28;20105;-64
2023/06/26 04:45:54;;;;;;;4.72;2.00;;;27.70;48.50;;;;;;5027352;28;20099;-66
2023/06/26 04:48:21;;;;;;;5.70;2.63;;;27.70;48.60;;;;;;5044415;28;20088;-65
2023/06/26 04:50:53;;;;;;;3.90;2.10;;;27.70;48.60;;;;;;5044174;28;20073;-65
2023/06/26 04:53:23;;;;;;;4.10;2.15;;;27.70;48.70;;;;;;5016749;28;20106;-64
2023/06/26 04:55:50;;;;;;;4.78;2.28;;;27.70;48.80;;;;;;5044064;28;20025;-66
2023/06/26 04:58:16;;;;;;;4.15;2.67;;;27.70;48.80;;;;;;5046002;28;20021;-66
2023/06/26 05:00:42;;;;;;;7.13;2.40;;;27.70;48.80;;;;;;5022651;28;20053;-64
2023/06/26 05:03:10;;;;;;;5.25;2.38;;;27.70;48.80;;;;;;5046729;28;20119;-65
2023/06/26 05:05:35;;;;;;;4.05;2.00;;;27.70;48.90;;;;;;5045595;28;20029;-65
2023/06/26 05:08:14;;;;;;;4.72;2.40;;;27.70;48.90;;;;;;5045450;28;20076;-66
2023/06/26 05:10:40;;;;;;;3.92;2.30;;;27.70;48.90;;;;;;5045030;28;20464;-65
2023/06/26 05:13:06;;;;;;;4.53;2.40;;;27.70;48.90;;;;;;5047936;28;20082;-65
2023/06/26 05:15:32;;;;;;;5.38;2.22;;;27.70;48.90;;;;;;5048005;28;20083;-65
2023/06/26 05:17:58;;;;;;;6.88;2.30;;;27.70;48.90;;;;;;5042225;28;20060;-66
2023/06/26 05:20:24;;;;;;;6.38;2.38;;;27.70;48.90;;;;;;5045145;28;20069;-67
2023/06/26 05:22:50;;;;;;;5.05;2.28;;;27.60;48.90;;;;;;5046290;28;20036;-66
2023/06/26 05:25:20;;;;;;;5.38;2.28;;;27.70;48.90;;;;;;5046901;28;20120;-68
2023/06/26 05:27:47;;;;;;;7.50;2.55;;;27.70;48.90;;;;;;5045612;28;20037;-65
2023/06/26 05:30:14;;;;;;;4.70;2.30;;;27.70;48.90;;;;;;5045278;28;20225;-65
2023/06/26 05:32:40;;;;;;;3.65;1.98;;;27.70;48.90;;;;;;5043433;28;20309;-66
2023/06/26 05:35:07;;;;;;;4.28;2.35;;;27.70;48.90;;;;;;5044795;28;20067;-66
2023/06/26 05:37:34;;;;;;;5.53;2.58;;;27.60;48.80;;;;;;5047150;28;20151;-67
2023/06/26 05:40:01;;;;;;;4.30;2.25;;;27.70;48.80;;;;;;5046496;28;20114;-65
2023/06/26 05:42:28;;;;;;;5.38;2.45;;;27.60;48.80;;;;;;5027497;28;20078;-65
2023/06/26 05:44:54;;;;;;;3.53;2.00;;;27.60;48.70;;;;;;5046630;28;20049;-66
2023/06/26 05:47:19;;;;;;;4.88;2.35;;;27.60;48.70;;;;;;5045672;28;20047;-65
2023/06/26 05:49:45;;;;;;;5.45;2.75;;;27.60;48.70;;;;;;5044553;28;20035;-65
2023/06/26 05:52:12;;;;;;;4.95;2.25;;;27.70;48.70;;;;;;5027966;28;20097;-65
2023/06/26 05:54:38;;;;;;;5.65;2.22;;;27.60;48.60;;;;;;5046103;28;20025;-66
2023/06/26 05:57:04;;;;;;;4.65;2.08;;;27.60;48.60;;;;;;5046711;28;20032;-66
2023/06/26 05:59:35;;;;;;;5.85;2.30;;;27.60;48.60;;;;;;5044291;28;20256;-66
2023/06/26 06:02:01;;;;;;;5.40;2.30;;;27.60;48.50;;;;;;5046392;28;20048;-66
2023/06/26 06:04:27;;;;;;;4.15;2.20;;;27.60;48.40;;;;;;5018728;28;20385;-65
2023/06/26 06:06:53;;;;;;;5.63;2.35;;;27.60;48.40;;;;;;5042599;28;20547;-66
2023/06/26 06:09:18;;;;;;;7.28;2.67;;;27.60;48.40;;;;;;5025004;28;20079;-67
2023/06/26 06:11:45;;;;;;;4.93;2.22;;;27.60;48.30;;;;;;5045809;28;20451;-65
2023/06/26 06:14:10;;;;;;;4.60;2.50;;;27.60;48.20;;;;;;5045420;28;20356;-64
2023/06/26 06:16:37;;;;;;;3.92;2.00;;;27.60;48.10;;;;;;5045196;28;20078;-63
2023/06/26 06:19:04;;;;;;;3.58;2.08;;;27.60;48.00;;;;;;5040900;28;20069;-64
2023/06/26 06:21:29;;;;;;;6.20;2.30;;;27.60;47.90;;;;;;5042287;28;20364;-63
2023/06/26 06:23:55;;;;;;;4.38;2.25;;;27.60;47.70;;;;;;5045106;28;20037;-64
2023/06/26 06:26:21;;;;;;;3.65;1.90;;;27.60;47.60;;;;;;5044911;28;20040;-66
2023/06/26 06:28:47;;;;;;;3.92;2.00;;;27.60;48.10;;;;;;5045951;28;20134;-62
2023/06/26 06:31:13;;;;;;;3.35;2.17;;;27.60;47.40;;;;;;5038019;28;20052;-63
2023/06/26 06:33:39;;;;;;;5.05;2.00;;;27.60;47.40;;;;;;5044231;28;20040;-63
2023/06/26 06:36:05;;;;;;;5.00;2.42;;;27.60;47.30;;;;;;5043537;28;20026;-65
2023/06/26 06:38:31;;;;;;;5.72;1.90;;;27.60;47.20;;;;;;5029519;28;20036;-67
2023/06/26 06:40:57;;;;;;;2.92;1.70;;;27.60;47.00;;;;;;5044771;28;20037;-64
2023/06/26 06:43:23;;;;;;;3.28;1.98;;;27.60;46.90;;;;;;5044123;28;20056;-63
2023/06/26 06:45:49;;;;;;;3.67;1.90;;;27.50;46.80;;;;;;5046184;28;20028;-64
2023/06/26 06:48:15;;;;;;;3.95;2.00;;;27.60;46.70;;;;;;5046426;28;20029;-64
2023/06/26 06:50:40;;;;;;;4.00;1.98;;;27.50;46.50;;;;;;5045474;28;20082;-65
2023/06/26 06:53:07;;;;;;;2.72;1.75;;;27.50;46.40;;;;;;5019373;28;20033;-67
2023/06/26 06:55:33;;;;;;;4.75;1.98;;;27.60;46.30;;;;;;5022734;28;20057;-64
2023/06/26 06:57:59;;;;;;;2.88;1.60;;;27.50;46.20;;;;;;5026469;28;20060;-64
2023/06/26 07:00:25;;;;;;;3.40;1.75;;;27.50;46.10;;;;;;5041929;28;20461;-64
2023/06/26 07:02:51;;;;;;;3.15;1.80;;;27.50;46.10;;;;;;5004255;28;20083;-65
2023/06/26 07:05:17;;;;;;;1.88;1.40;;;27.50;46.10;;;;;;5017564;28;20079;-64
2023/06/26 07:07:43;;;;;;;2.53;1.40;;;27.50;46.00;;;;;;5037744;28;20409;-64
2023/06/26 07:10:12;;;;;;;2.65;1.50;;;27.60;46.10;;;;;;5041533;28;20448;-64
2023/06/26 07:12:38;;;;;;;2.28;1.40;;;27.50;45.90;;;;;;5045300;28;20452;-65
2023/06/26 07:15:05;;;;;;;2.95;1.50;;;27.50;45.90;;;;;;5045293;28;20151;-66
2023/06/26 07:17:35;;;;;;;2.63;1.65;;;27.50;45.90;;;;;;5023395;28;20045;-64
2023/06/26 07:20:06;;;;;;;2.53;1.42;;;27.50;45.90;;;;;;5044848;28;20101;-64
2023/06/26 07:22:32;;;;;;;2.90;1.45;;;27.60;45.90;;;;;;5043773;28;20033;-64
2023/06/26 07:24:58;;;;;;;3.15;1.40;;;27.50;45.80;;;;;;5041898;28;20021;-69
2023/06/26 07:27:24;;;;;;;5.38;1.67;;;27.50;45.80;;;;;;5044473;28;20328;-66
2023/06/26 07:29:50;;;;;;;2.35;1.50;;;27.50;45.70;;;;;;5017782;28;20044;-64
2023/06/26 07:32:16;;;;;;;1.73;1.40;;;27.50;45.70;;;;;;5045597;28;20029;-64
2023/06/26 07:34:42;;;;;;;3.38;1.60;;;27.50;45.70;;;;;;5043419;28;20060;-65
2023/06/26 07:37:08;;;;;;;4.72;1.40;;;27.50;45.70;;;;;;5044402;28;20432;-65
2023/06/26 07:39:33;;;;;;;3.50;1.48;;;27.50;45.60;;;;;;5043251;28;20039;-64
2023/06/26 07:42:00;;;;;;;2.42;1.55;;;27.50;45.60;;;;;;5042867;28;20119;-65
2023/06/26 07:44:26;;;;;;;2.55;1.60;;;27.50;45.60;;;;;;5042904;28;20142;-65
2023/06/26 07:46:52;;;;;;;2.60;1.58;;;27.50;45.60;;;;;;5043915;28;20087;-64
2023/06/26 07:49:18;;;;;;;2.38;1.67;;;27.50;45.50;;;;;;5041934;28;20092;-66
2023/06/26 07:51:44;;;;;;;2.10;1.85;;;27.50;45.50;;;;;;5028318;28;20029;-64
2023/06/26 07:54:10;;;;;;;2.05;1.40;;;27.60;45.60;;;;;;5035554;28;20502;-67
2023/06/26 07:56:58;;;;;;;2.58;1.80;;;27.50;45.50;;;;;;5039381;28;20063;-67
2023/06/26 07:59:26;;;;;;;2.95;1.48;;;27.50;45.50;;;;;;5045568;28;20040;-65
2023/06/26 08:01:54;;;;;;;3.47;1.45;;;27.50;45.50;;;;;;5042099;28;20418;-65
2023/06/26 08:04:21;;;;;;;2.63;1.67;;;27.50;45.40;;;;;;5040768;28;20025;-64
2023/06/26 08:06:51;;;;;;;2.25;1.67;;;27.50;45.40;;;;;;5037988;28;20052;-66
2023/06/26 08:09:18;;;;;;;2.00;1.40;;;27.60;45.50;;;;;;5048284;28;20108;-65
2023/06/26 08:11:44;;;;;;;2.92;1.60;;;27.60;45.40;;;;;;5048659;28;20071;-68
2023/06/26 08:14:14;;;;;;;2.22;1.27;;;27.60;45.30;;;;;;5042894;28;20045;-67
2023/06/26 08:16:41;;;;;;;2.17;1.30;;;27.60;45.20;;;;;;5015730;28;20048;-65
2023/06/26 08:19:08;;;;;;;2.28;1.45;;;27.70;45.20;;;;;;5011996;28;20044;-65
2023/06/26 08:21:34;;;;;;;2.00;1.30;;;27.60;45.10;;;;;;5050907;28;20389;-66
2023/06/26 08:24:00;;;;;;;1.50;1.38;;;27.70;45.20;;;;;;5049742;28;20060;-68
2023/06/26 08:26:26;;;;;;;2.47;1.52;;;27.70;45.10;;;;;;5029841;28;20021;-64
2023/06/26 08:28:52;;;;;;;4.03;1.60;;;27.70;45.10;;;;;;5027030;28;20087;-67
2023/06/26 08:31:19;;;;;;;2.08;1.35;;;27.70;45.20;;;;;;5019006;28;20037;-68
2023/06/26 08:33:45;;;;;;;2.42;1.40;;;27.70;45.20;;;;;;5020205;28;20103;-68
2023/06/26 08:36:11;;;;;;;2.28;1.40;;;27.80;45.30;;;;;;5053853;28;20029;-68
2023/06/26 08:38:37;;;;;;;2.55;1.45;;;27.80;45.10;;;;;;5054689;28;20036;-66
2023/06/26 08:41:03;;;;;;;1.90;1.42;;;27.90;45.00;;;;;;5036389;28;20033;-68
2023/06/26 08:43:29;;;;;;;1.85;1.10;;;27.90;44.80;;;;;;5054664;28;20179;-67
2023/06/26 08:45:55;;;;;;;1.20;1.10;;;28.00;44.70;;;;;;5054920;28;20045;-68
2023/06/26 08:48:21;;;;;;;1.75;1.00;;;28.10;44.50;;;;;;5031514;28;20056;-64
2023/06/26 08:50:53;;;;;;;2.55;1.73;;;28.20;44.30;;;;;;5025410;28;20056;-65
2023/06/26 08:53:18;;;;;;;1.83;1.38;;;28.30;44.20;;;;;;5045568;28;20777;-67
2023/06/26 08:55:45;;;;;;;2.05;1.20;;;28.40;44.10;;;;;;5042311;28;20052;-65
2023/06/26 08:58:12;;;;;;;2.08;1.27;;;28.40;43.90;;;;;;5043704;28;20425;-64
2023/06/26 09:00:39;;;;;;;1.60;1.40;;;28.50;43.90;;;;;;5042993;28;20068;-65
2023/06/26 09:03:05;;;;;;;1.40;1.27;;;28.50;43.80;;;;;;5012994;28;20025;-65
2023/06/26 09:05:31;;;;;;;1.60;1.30;;;28.50;43.80;;;;;;5028041;28;20029;-64
2023/06/26 09:07:58;;;;;;;2.22;1.35;;;28.60;43.90;;;;;;5025542;28;20021;-67
2023/06/26 09:10:24;;;;;;;3.55;1.40;;;28.50;43.80;;;;;;5041182;28;20037;-65
2023/06/26 09:12:50;;;;;;;3.05;1.40;;;28.50;43.70;;;;;;5026704;28;20044;-65
2023/06/26 09:15:20;;;;;;;1.58;1.15;;;28.50;43.60;;;;;;5024655;28;20025;-65
2023/06/26 09:17:47;;;;;;;1.63;1.15;;;28.50;43.60;;;;;;5007896;28;20167;-65
2023/06/26 09:20:14;;;;;;;2.00;1.15;;;28.40;43.40;;;;;;5041337;28;20440;-64
2023/06/26 09:22:42;;;;;;;1.42;1.00;;;28.50;43.40;;;;;;5045121;28;20129;-64
2023/06/26 09:25:09;;;;;;;1.55;1.10;;;28.50;43.30;;;;;;5025232;28;20017;-65
2023/06/26 09:27:39;;;;;;;1.85;1.10;;;28.40;43.20;;;;;;5041816;28;20463;-65
2023/06/26 09:30:07;;;;;;;3.63;1.10;;;28.40;43.20;;;;;;5043821;28;20037;-65
2023/06/26 09:32:36;;;;;;;3.38;1.20;;;28.40;43.10;;;;;;5042937;28;20116;-64
2023/06/26 09:35:03;;;;;;;1.48;1.10;;;28.40;43.00;;;;;;5043743;28;20029;-65
2023/06/26 09:37:29;;;;;;;1.85;1.30;;;28.40;42.90;;;;;;5044613;28;20067;-65
2023/06/26 09:39:56;;;;;;;1.52;1.10;;;28.30;42.70;;;;;;5025446;28;20173;-64
2023/06/26 09:42:23;;;;;;;1.83;1.05;;;28.30;42.50;;;;;;5041016;28;20025;-63
2023/06/26 09:44:49;;;;;;;1.60;0.88;;;28.30;42.40;;;;;;5044447;28;20052;-66
2023/06/26 09:47:21;;;;;;;1.77;1.13;;;28.30;42.30;;;;;;5041801;28;20103;-64
2023/06/26 09:49:47;;;;;;;1.58;1.02;;;28.30;42.10;;;;;;5043202;28;20437;-65
2023/06/26 09:52:16;;;;;;;0.88;0.75;;;28.30;42.00;;;;;;5026691;28;20144;-63
2023/06/26 09:54:44;;;;;;;2.75;0.93;;;28.30;41.80;;;;;;5043226;28;20099;-64
2023/06/26 09:57:12;;;;;;;1.55;0.90;;;28.30;41.80;;;;;;5043799;28;20528;-62
2023/06/26 09:59:42;;;;;;;1.50;0.80;;;28.20;41.60;;;;;;5042633;28;20404;-66
2023/06/26 10:02:08;;;;;;;2.20;0.95;;;28.20;41.50;;;;;;5044207;28;20290;-65
2023/06/26 10:04:37;;;;;;;1.77;1.00;;;28.20;41.40;;;;;;5041965;28;20086;-67
2023/06/26 10:07:11;;;;;;;3.20;0.80;;;28.20;41.30;;;;;;5037247;28;20151;-65
2023/06/26 10:09:41;;;;;;;1.35;0.75;;;28.20;41.20;;;;;;5042254;28;20045;-66
2023/06/26 10:12:18;;;;;;;1.67;0.70;;;28.20;41.20;;;;;;5041948;28;20071;-66
2023/06/26 10:14:44;;;;;;;0.75;0.65;;;28.20;41.10;;;;;;5021029;28;20025;-65
2023/06/26 10:17:13;;;;;;;1.50;0.60;;;28.20;41.10;;;;;;5040423;28;20393;-64
2023/06/26 10:19:44;;;;;;;1.65;0.82;;;28.20;41.60;;;;;;5017949;28;20084;-66
2023/06/26 10:22:17;;;;;;;1.38;0.80;;;28.20;40.90;;;;;;5042206;28;20106;-63
2023/06/26 10:24:45;;;;;;;0.50;0.40;;;28.20;40.90;;;;;;5026937;28;20108;-63
2023/06/26 10:27:21;;;;;;;0.57;0.55;;;28.20;40.90;;;;;;5043897;28;20044;-65
2023/06/26 10:29:50;;;;;;;1.70;0.70;;;28.20;40.80;;;;;;5043035;28;20052;-66
2023/06/26 10:32:18;;;;;;;1.17;0.60;;;28.20;40.90;;;;;;5040629;28;20365;-64
2023/06/26 10:34:44;;;;;;;0.95;0.70;;;28.10;40.70;;;;;;5017915;28;20027;-63
2023/06/26 10:37:12;;;;;;;1.40;0.60;;;28.10;40.60;;;;;;5041923;28;20043;-64
2023/06/26 10:39:49;;;;;;;1.58;0.80;;;28.20;40.50;;;;;;5042589;28;20112;-64
2023/06/26 10:42:17;;;;;;;0.95;0.60;;;28.10;40.40;;;;;;5040727;28;20036;-63
2023/06/26 10:44:46;;;;;;;1.05;0.60;;;28.20;40.40;;;;;;5043104;28;20036;-66
2023/06/26 10:47:30;;;;;;;1.55;0.70;;;28.20;40.30;;;;;;5003829;28;20029;-66
2023/06/26 10:49:56;;;;;;;1.27;0.70;;;28.10;40.00;;;;;;5041066;28;20383;-65
2023/06/26 10:52:26;;;;;;;1.17;0.70;;;28.10;40.00;;;;;;5043880;28;20416;-65
2023/06/26 10:54:55;;;;;;;0.55;0.40;;;28.10;39.80;;;;;;5035599;28;20161;-65
2023/06/26 10:57:25;;;;;;;2.42;0.65;;;28.20;39.80;;;;;;5041141;28;20132;-67
2023/06/26 11:00:12;;;;;;;1.40;0.60;;;28.20;39.80;;;;;;5019189;28;20037;-65
2023/06/26 11:02:50;;;;;;;1.42;0.70;;;28.10;39.50;;;;;;5018729;28;20393;-65
2023/06/26 11:05:32;;;;;;;0.60;0.55;;;28.10;39.40;;;;;;5034775;28;20344;-67
2023/06/26 11:08:08;;;;;;;1.33;0.50;;;28.20;39.10;;;;;;5039889;28;20333;-64
2023/06/26 11:10:59;;;;;;;1.35;0.70;;;28.10;38.90;;;;;;5039916;28;20029;-63
2023/06/26 11:13:26;;;;;;;1.60;0.60;;;28.20;38.80;;;;;;5026685;28;20432;-64
2023/06/26 11:15:52;;;;;;;0.55;0.50;;;28.10;38.60;;;;;;5038420;28;20029;-65
2023/06/26 11:18:18;;;;;;;1.33;0.65;;;28.10;38.50;;;;;;5039884;28;20407;-63
2023/06/26 11:20:44;;;;;;;0.90;0.50;;;28.10;38.40;;;;;;5015791;28;21674;-66
2023/06/26 11:23:11;;;;;;;0.93;0.40;;;28.20;38.50;;;;;;5007532;28;20120;-66
2023/06/26 11:25:38;;;;;;;1.20;0.75;;;28.20;38.60;;;;;;5032828;28;20053;-65
2023/06/26 11:28:05;;;;;;;0.93;0.68;;;28.20;38.60;;;;;;5042431;28;20112;-65
2023/06/26 11:30:31;;;;;;;0.80;0.40;;;28.20;38.40;;;;;;5040650;28;20032;-66
2023/06/26 11:33:08;;;;;;;1.02;0.50;;;28.20;38.50;;;;;;5039131;28;20037;-65
2023/06/26 11:35:34;;;;;;;7.60;0.70;;;28.20;38.40;;;;;;5040441;28;20029;-65
2023/06/26 11:38:06;;;;;;;1.13;0.50;;;28.20;38.40;;;;;;5039363;28;20055;-65
2023/06/26 11:40:35;;;;;;;1.30;0.55;;;28.20;38.20;;;;;;5019719;28;20459;-64
2023/06/26 11:43:03;;;;;;;1.23;0.57;;;28.20;38.00;;;;;;5038034;28;20109;-65
2023/06/26 11:45:32;;;;;;;0.68;0.50;;;28.20;38.00;;;;;;5037190;28;20052;-64
2023/06/26 11:47:59;;;;;;;1.77;0.50;;;28.20;38.00;;;;;;5045132;28;20091;-67
2023/06/26 11:50:31;;;;;;;1.10;0.60;;;28.20;38.00;;;;;;5044211;28;20029;-68
2023/06/26 11:52:59;;;;;;;1.02;0.50;;;28.20;38.00;;;;;;5041800;28;20075;-67
2023/06/26 11:55:26;;;;;;;1.00;0.32;;;28.20;37.90;;;;;;5039848;28;20025;-69
2023/06/26 11:57:56;;;;;;;1.73;0.57;;;28.20;37.80;;;;;;5045028;28;20021;-69
2023/06/26 12:00:23;;;;;;;2.05;0.60;;;28.30;37.80;;;;;;5033083;28;20047;-69
2023/06/26 12:02:51;;;;;;;0.45;0.38;;;28.40;37.80;;;;;;5028476;28;20040;-66
2023/06/26 12:05:18;;;;;;;0.82;0.52;;;28.50;37.70;;;;;;5050497;28;20041;-69
2023/06/26 12:07:47;;;;;;;0.70;0.60;;;28.60;37.80;;;;;;5057333;28;20087;-63
2023/06/26 12:10:14;;;;;;;1.48;0.60;;;28.70;37.70;;;;;;5057511;28;20040;-68
2023/06/26 12:12:41;;;;;;;1.42;0.80;;;28.80;37.90;;;;;;5039367;28;20033;-63
2023/06/26 12:15:10;;;;;;;0.90;0.50;;;28.90;38.10;;;;;;5057445;28;20071;-66
2023/06/26 12:17:40;;;;;;;1.10;0.50;;;29.00;38.20;;;;;;5055500;28;20060;-65
2023/06/26 12:20:18;;;;;;;1.00;0.60;;;29.10;38.10;;;;;;5039320;28;20087;-67
2023/06/26 12:22:47;;;;;;;1.00;0.60;;;29.20;37.90;;;;;;5052976;28;20066;-65
2023/06/26 12:25:13;;;;;;;0.82;0.55;;;29.30;37.90;;;;;;5037314;28;20037;-66
2023/06/26 12:27:39;;;;;;;0.70;0.57;;;29.30;37.70;;;;;;5045773;28;20358;-67
2023/06/26 12:30:05;;;;;;;1.10;0.63;;;29.40;37.70;;;;;;5041611;28;20048;-65
2023/06/26 12:32:31;;;;;;;0.77;0.40;;;29.50;37.60;;;;;;5028675;28;20029;-63
2023/06/26 12:34:58;;;;;;;3.40;0.60;;;29.50;37.50;;;;;;5045667;28;20098;-64
2023/06/26 12:37:25;;;;;;;1.52;0.43;;;29.60;37.50;;;;;;5035473;28;20029;-63
2023/06/26 12:39:56;;;;;;;1.08;0.52;;;29.60;37.40;;;;;;5051038;28;20044;-64
2023/06/26 12:42:27;;;;;;;1.20;0.52;;;29.60;37.40;;;;;;5029052;28;20032;-64
2023/06/26 12:44:57;;;;;;;0.68;0.43;;;29.60;37.30;;;;;;5036575;28;20410;-63
2023/06/26 12:47:28;;;;;;;0.95;0.57;;;29.50;37.20;;;;;;5047598;28;20017;-63
2023/06/26 12:49:54;;;;;;;0.80;0.47;;;29.60;37.20;;;;;;5050781;28;20126;-64